createdAt,value
2019-05-20T00:02:28.496Z,96741.25
2019-05-20T00:05:03.328Z,96735.27
2019-05-20T00:07:38.942Z,96735.77
2019-05-20T00:10:14.158Z,96731.89
2019-05-20T00:12:49.074Z,96736.23
2019-05-20T00:15:23.319Z,96741.93
2019-05-20T00:17:58.270Z,96736.16
2019-05-20T00:20:31.933Z,96723.66
2019-05-20T00:23:09.887Z,96724.00
2019-05-20T00:25:43.971Z,96731.45
2019-05-20T00:28:17.555Z,96745.36
2019-05-20T00:30:54.048Z,96727.17
2019-05-20T00:33:27.667Z,96723.86
2019-05-20T00:36:01.179Z,96720.31
2019-05-20T00:38:34.846Z,96723.00
2019-05-20T00:41:08.518Z,96723.34
2019-05-20T00:43:42.168Z,96723.44
2019-05-20T00:46:15.924Z,96727.09
2019-05-20T00:48:49.757Z,96716.86
2019-05-20T00:51:23.166Z,96729.03
2019-05-20T00:53:56.873Z,96736.86
2019-05-20T00:56:32.308Z,96723.95
2019-05-20T00:59:07.693Z,96729.61
2019-05-20T01:01:42.920Z,96717.75
2019-05-20T01:04:16.805Z,96720.33
2019-05-20T01:06:51.129Z,96721.02
2019-05-20T01:09:24.677Z,96724.09
2019-05-20T01:11:59.758Z,96721.70
2019-05-20T01:14:35.029Z,96718.55
2019-05-20T01:17:08.790Z,96726.66
2019-05-20T01:19:42.333Z,96725.30
2019-05-20T01:22:17.538Z,96735.08
2019-05-20T01:24:51.986Z,96728.63
2019-05-20T01:27:25.881Z,96730.44
2019-05-20T01:29:59.542Z,96743.50
2019-05-20T01:32:33.259Z,96740.48
2019-05-20T01:35:07.973Z,96741.82
2019-05-20T01:37:42.240Z,96741.56
2019-05-20T01:40:18.766Z,96726.80
2019-05-20T01:42:53.869Z,96738.63
2019-05-20T01:45:27.962Z,96729.67
2019-05-20T01:48:04.054Z,96739.16
2019-05-20T01:50:39.467Z,96731.91
2019-05-20T01:53:14.369Z,96718.17
2019-05-20T01:55:49.723Z,96729.09
2019-05-20T01:58:23.463Z,96723.06
2019-05-20T02:00:59.741Z,96720.62
2019-05-20T02:03:33.267Z,96720.48
2019-05-20T02:06:08.542Z,96720.38
2019-05-20T02:08:43.620Z,96723.86
2019-05-20T02:11:17.503Z,96719.27
2019-05-20T02:13:51.465Z,96718.01
2019-05-20T02:16:26.467Z,96725.30
2019-05-20T02:19:01.362Z,96713.38
2019-05-20T02:21:35.051Z,96716.16
2019-05-20T02:24:10.231Z,96721.24
2019-05-20T02:26:44.491Z,96714.79
2019-05-20T02:29:19.589Z,96707.23
2019-05-20T02:31:53.138Z,96722.70
2019-05-20T02:34:27.081Z,96720.66
2019-05-20T02:37:00.555Z,96717.61
2019-05-20T02:39:36.467Z,96719.45
2019-05-20T02:42:11.727Z,96719.17
2019-05-20T02:44:47.515Z,96717.06
2019-05-20T02:47:22.705Z,96719.66
2019-05-20T02:49:56.435Z,96712.00
2019-05-20T02:52:30.207Z,96711.55
2019-05-20T02:55:03.927Z,96703.95
2019-05-20T02:57:39.297Z,96702.70
2019-05-20T03:00:13.230Z,96703.18
2019-05-20T03:02:48.501Z,96712.88
2019-05-20T03:05:22.314Z,96701.08
2019-05-20T03:07:56.064Z,96697.23
2019-05-20T03:10:29.729Z,96707.73
2019-05-20T03:13:06.731Z,96702.22
2019-05-20T03:15:40.083Z,96701.82
2019-05-20T03:18:15.467Z,96691.81
2019-05-20T03:20:50.606Z,96695.51
2019-05-20T03:23:24.346Z,96685.72
2019-05-20T03:25:58.043Z,96679.49
2019-05-20T03:28:33.335Z,96682.42
2019-05-20T03:31:06.861Z,96664.77
2019-05-20T03:33:42.602Z,96669.48
2019-05-20T03:36:17.480Z,96687.54
2019-05-20T03:38:51.207Z,96686.11
2019-05-20T03:41:24.748Z,96674.08
2019-05-20T03:43:58.665Z,96668.02
2019-05-20T03:46:32.819Z,96666.08
2019-05-20T03:49:06.573Z,96662.33
2019-05-20T03:51:42.124Z,96683.52
2019-05-20T03:54:16.239Z,96677.22
2019-05-20T03:56:50.068Z,96676.11
2019-05-20T03:59:25.443Z,96669.86
2019-05-20T04:02:00.591Z,96656.88
2019-05-20T04:04:34.897Z,96653.48
2019-05-20T04:07:10.110Z,96665.71
2019-05-20T04:09:45.224Z,96651.80
2019-05-20T04:12:19.225Z,96658.20
2019-05-20T04:14:54.830Z,96653.63
2019-05-20T04:17:28.641Z,96642.00
2019-05-20T04:20:03.647Z,96659.08
2019-05-20T04:22:37.412Z,96668.81
2019-05-20T04:25:11.381Z,96671.14
2019-05-20T04:27:45.907Z,96689.09
2019-05-20T04:30:21.221Z,96692.55
2019-05-20T04:32:54.951Z,96688.41
2019-05-20T04:35:29.001Z,96699.23
2019-05-20T04:38:04.077Z,96704.06
2019-05-20T04:40:37.677Z,96720.70
2019-05-20T04:43:14.277Z,96725.30
2019-05-20T04:45:48.180Z,96742.12
2019-05-20T04:48:23.624Z,96738.13
2019-05-20T04:50:58.576Z,96746.56
2019-05-20T04:53:32.495Z,96746.56
2019-05-20T04:56:07.632Z,96741.95
2019-05-20T04:58:41.312Z,96741.88
2019-05-20T05:01:16.059Z,96742.57
2019-05-20T05:03:49.623Z,96759.03
2019-05-20T05:06:23.556Z,96751.70
2019-05-20T05:08:58.711Z,96761.16
2019-05-20T05:11:32.810Z,96766.52
2019-05-20T05:14:06.609Z,96763.13
2019-05-20T05:17:13.421Z,96767.34
2019-05-20T05:19:48.716Z,96763.13
2019-05-20T05:22:23.489Z,96779.57
2019-05-20T05:24:57.233Z,96776.59
2019-05-20T05:27:30.956Z,96778.02
2019-05-20T05:30:07.555Z,96771.97
2019-05-20T05:32:41.280Z,96783.50
2019-05-20T05:35:17.870Z,96796.47
2019-05-20T05:37:52.037Z,96789.50
2019-05-20T05:40:32.343Z,96800.37
2019-05-20T05:43:13.061Z,96813.16
2019-05-20T05:45:46.918Z,96813.00
2019-05-20T05:48:22.095Z,96812.43
2019-05-20T05:50:57.331Z,96803.75
2019-05-20T05:53:31.376Z,96802.72
2019-05-20T05:56:06.326Z,96795.29
2019-05-20T05:58:40.334Z,96806.59
2019-05-20T06:01:14.090Z,96802.34
2019-05-20T06:03:49.275Z,96811.00
2019-05-20T06:06:22.773Z,96817.20
2019-05-20T06:08:56.543Z,96816.27
2019-05-20T06:11:31.430Z,96823.49
2019-05-20T06:14:05.286Z,96822.16
2019-05-20T06:16:39.038Z,96822.77
2019-05-20T06:19:14.293Z,96827.42
2019-05-20T06:21:48.055Z,96827.42
2019-05-20T06:24:22.377Z,96837.83
2019-05-20T06:26:55.910Z,96846.91
2019-05-20T06:29:29.993Z,96846.05
2019-05-20T06:32:04.471Z,96842.31
2019-05-20T06:34:38.674Z,96846.41
2019-05-20T06:37:17.442Z,96836.81
2019-05-20T06:39:51.781Z,96843.17
2019-05-20T06:42:27.425Z,96842.45
2019-05-20T06:45:02.447Z,96851.39
2019-05-20T06:47:37.566Z,96859.91
2019-05-20T06:50:13.939Z,96865.48
2019-05-20T06:52:47.631Z,96866.70
2019-05-20T06:55:21.573Z,96869.70
2019-05-20T06:57:57.453Z,96859.23
2019-05-20T07:00:42.907Z,96867.63
2019-05-20T07:03:18.459Z,96873.40
2019-05-20T07:05:52.131Z,96875.57
2019-05-20T07:08:26.753Z,96871.47
2019-05-20T07:11:00.599Z,96879.84
2019-05-20T07:13:35.813Z,96888.71
2019-05-20T07:16:11.029Z,96890.05
2019-05-20T07:18:46.539Z,96901.30
2019-05-20T07:21:20.465Z,96898.05
2019-05-20T07:23:54.065Z,96901.63
2019-05-20T07:26:27.809Z,96911.95
2019-05-20T07:29:03.092Z,96918.73
2019-05-20T07:31:38.503Z,96919.72
2019-05-20T07:34:13.731Z,96921.87
2019-05-20T07:37:01.963Z,96921.31
2019-05-20T07:39:23.494Z,96929.86
2019-05-20T07:41:58.815Z,96931.02
2019-05-20T07:44:32.552Z,96935.19
2019-05-20T07:47:10.969Z,96948.77
2019-05-20T07:49:45.021Z,96942.19
2019-05-20T07:52:21.032Z,96947.63
2019-05-20T07:54:57.468Z,96951.28
2019-05-20T07:57:51.846Z,96945.52
2019-05-20T08:00:26.670Z,96948.06
2019-05-20T08:03:01.843Z,96947.27
2019-05-20T08:05:37.307Z,96957.43
2019-05-20T08:08:12.173Z,96953.96
2019-05-20T08:10:46.203Z,96961.22
2019-05-20T08:13:19.827Z,96964.28
2019-05-20T08:15:53.334Z,96966.13
2019-05-20T08:18:27.190Z,96978.42
2019-05-20T08:21:02.311Z,96965.15
2019-05-20T08:23:35.908Z,96969.77
2019-05-20T08:26:11.106Z,96969.71
2019-05-20T08:28:46.202Z,96969.69
2019-05-20T08:31:21.021Z,96969.92
2019-05-20T08:33:55.283Z,96975.98
2019-05-20T08:36:29.707Z,96986.55
2019-05-20T08:39:04.995Z,96990.81
2019-05-20T08:41:38.896Z,96986.86
2019-05-20T08:44:12.696Z,96980.52
2019-05-20T08:46:47.468Z,96978.36
2019-05-20T08:49:20.751Z,96983.83
2019-05-20T08:51:54.663Z,96980.23
2019-05-20T08:54:30.574Z,96983.66
2019-05-20T08:57:06.004Z,96987.84
2019-05-20T08:59:40.975Z,96995.60
2019-05-20T09:02:15.731Z,96993.61
2019-05-20T09:04:49.194Z,96996.52
2019-05-20T09:07:24.179Z,96993.05
2019-05-20T09:09:57.890Z,97001.33
2019-05-20T09:12:31.503Z,96999.62
2019-05-20T09:15:07.084Z,97007.80
2019-05-20T09:17:41.222Z,97004.73
2019-05-20T09:20:16.757Z,97014.88
2019-05-20T09:22:51.379Z,97001.38
2019-05-20T09:25:32.943Z,97012.78
2019-05-20T09:28:06.681Z,97005.59
2019-05-20T09:30:41.630Z,97011.12
2019-05-20T09:33:15.369Z,97016.64
2019-05-20T09:35:49.766Z,97022.91
2019-05-20T09:38:23.464Z,97023.15
2019-05-20T09:43:46.956Z,97035.27
2019-05-20T09:46:20.868Z,97032.58
2019-05-20T09:48:56.807Z,97031.13
2019-05-20T09:51:30.626Z,97049.05
2019-05-20T09:54:04.394Z,97045.28
2019-05-20T09:56:38.145Z,97059.89
2019-05-20T09:59:11.668Z,97057.52
2019-05-20T10:01:45.122Z,97064.41
2019-05-20T10:04:20.151Z,97060.41
2019-05-20T10:06:53.670Z,97063.53
2019-05-20T10:09:27.577Z,97074.59
2019-05-20T10:12:01.128Z,97075.21
2019-05-20T10:14:36.146Z,97072.33
2019-05-20T10:17:09.899Z,97083.01
2019-05-20T10:19:45.134Z,97085.53
2019-05-20T10:22:19.910Z,97086.70
2019-05-20T10:24:59.011Z,97080.44
2019-05-20T10:27:34.130Z,97080.09
2019-05-20T10:30:13.457Z,97090.48
2019-05-20T10:32:48.837Z,97080.22
2019-05-20T10:35:24.059Z,97081.13
2019-05-20T10:37:59.001Z,97079.45
2019-05-20T10:40:34.740Z,97083.41
2019-05-20T10:43:17.776Z,97077.05
2019-05-20T10:45:54.909Z,97071.94
2019-05-20T10:48:30.061Z,97080.95
2019-05-20T10:51:10.244Z,97075.80
2019-05-20T10:53:40.777Z,97073.18
2019-05-20T10:56:17.167Z,97071.39
2019-05-20T10:58:52.172Z,97067.52
2019-05-20T11:01:27.844Z,97070.83
2019-05-20T11:04:02.815Z,97078.22
2019-05-20T11:06:42.122Z,97080.60
2019-05-20T11:09:22.256Z,97079.23
2019-05-20T11:11:59.845Z,97082.75
2019-05-20T11:14:36.339Z,97083.91
2019-05-20T11:17:14.741Z,97095.64
2019-05-20T11:19:51.481Z,97097.91
2019-05-20T11:22:32.745Z,97101.44
2019-05-20T11:25:11.167Z,97110.45
2019-05-20T11:27:47.398Z,97112.63
2019-05-20T11:30:23.727Z,97117.62
2019-05-20T11:32:59.501Z,97111.24
2019-05-20T11:35:35.766Z,97116.48
2019-05-20T11:38:28.890Z,97127.30
2019-05-20T11:41:06.479Z,97123.21
2019-05-20T11:43:39.691Z,97118.19
2019-05-20T11:46:16.220Z,97128.66
2019-05-20T11:48:54.570Z,97128.88
2019-05-20T11:51:33.173Z,97136.98
2019-05-20T11:54:09.908Z,97139.02
2019-05-20T11:56:45.937Z,97145.98
2019-05-20T11:59:20.282Z,97144.95
2019-05-20T12:01:54.616Z,97113.71
2019-05-20T12:04:31.097Z,97098.55
2019-05-20T12:07:08.577Z,97117.45
2019-05-20T12:09:49.491Z,97128.30
2019-05-20T12:12:22.589Z,97138.78
2019-05-20T12:14:59.851Z,97139.02
2019-05-20T12:17:35.019Z,97139.91
2019-05-20T12:20:20.729Z,97139.29
2019-05-20T12:22:54.901Z,97137.63
2019-05-20T12:25:31.257Z,97141.98
2019-05-20T12:28:06.350Z,97141.13
2019-05-20T12:30:45.148Z,97149.94
2019-05-20T12:33:23.328Z,97157.55
2019-05-20T12:36:09.067Z,97156.08
2019-05-20T12:38:44.073Z,97146.41
2019-05-20T12:41:19.670Z,97143.69
2019-05-20T12:44:10.891Z,97139.05
2019-05-20T12:46:31.329Z,97139.06
2019-05-20T12:49:09.732Z,97138.34
2019-05-20T12:51:46.622Z,97133.88
2019-05-20T12:57:12.526Z,97123.64
2019-05-20T12:59:48.559Z,97124.11
2019-05-20T13:02:27.120Z,97122.17
2019-05-20T13:05:02.804Z,97121.15
2019-05-20T13:07:40.014Z,97118.09
2019-05-20T13:10:31.213Z,97120.53
2019-05-20T13:12:57.381Z,97120.34
2019-05-20T13:15:35.398Z,97125.20
2019-05-20T13:18:14.036Z,97127.55
2019-05-20T13:20:50.348Z,97123.31
2019-05-20T13:23:28.195Z,97118.18
2019-05-20T13:26:06.589Z,97119.98
2019-05-20T13:28:45.316Z,97122.88
2019-05-20T13:31:23.858Z,97126.05
2019-05-20T13:34:01.858Z,97116.45
2019-05-20T13:36:37.188Z,97108.12
2019-05-20T13:39:11.848Z,97116.55
2019-05-20T13:41:50.206Z,97116.89
2019-05-20T13:44:27.144Z,97113.00
2019-05-20T13:47:02.442Z,97108.92
2019-05-20T13:49:39.799Z,97112.09
2019-05-20T13:52:15.129Z,97113.26
2019-05-20T13:54:51.493Z,97102.03
2019-05-20T13:57:29.583Z,97106.34
2019-05-20T14:00:07.555Z,97104.82
2019-05-20T14:02:42.809Z,97108.67
2019-05-20T14:05:17.628Z,97106.42
2019-05-20T14:07:52.691Z,97103.73
2019-05-20T14:10:26.473Z,97105.68
2019-05-20T14:13:02.412Z,97101.14
2019-05-20T14:15:39.718Z,97102.63
2019-05-20T14:18:13.553Z,97102.52
2019-05-20T14:20:51.815Z,97107.30
2019-05-20T14:23:29.933Z,97097.83
2019-05-20T14:26:05.065Z,97097.77
2019-05-20T14:28:41.308Z,97100.48
2019-05-20T14:31:19.019Z,97099.31
2019-05-20T14:33:54.340Z,97101.39
2019-05-20T14:36:39.441Z,97099.57
2019-05-20T14:39:04.161Z,97102.66
2019-05-20T14:41:44.838Z,97107.41
2019-05-20T14:44:22.332Z,97109.22
2019-05-20T14:46:59.148Z,97104.67
2019-05-20T14:49:35.465Z,97104.80
2019-05-20T14:52:09.762Z,97112.98
2019-05-20T14:54:45.604Z,97105.68
2019-05-20T14:57:24.659Z,97096.89
2019-05-20T15:00:02.973Z,97093.20
2019-05-20T15:02:38.217Z,97097.66
2019-05-20T15:05:13.330Z,97097.77
2019-05-20T15:07:48.259Z,97097.23
2019-05-20T15:10:24.618Z,97090.02
2019-05-20T15:12:59.051Z,97095.60
2019-05-20T15:15:34.254Z,97099.63
2019-05-20T15:18:09.282Z,97083.39
2019-05-20T15:20:46.727Z,97092.61
2019-05-20T15:23:21.956Z,97094.58
2019-05-20T15:25:57.521Z,97099.71
2019-05-20T15:28:34.254Z,97090.02
2019-05-20T15:31:11.769Z,97090.44
2019-05-20T15:33:47.005Z,97093.52
2019-05-20T15:36:24.773Z,97090.44
2019-05-20T15:39:02.981Z,97094.08
2019-05-20T15:41:37.670Z,97089.98
2019-05-20T15:44:15.312Z,97095.91
2019-05-20T15:46:50.346Z,97092.94
2019-05-20T15:49:25.471Z,97092.68
2019-05-20T15:52:20.214Z,97084.05
2019-05-20T15:54:55.223Z,97083.21
2019-05-20T15:57:37.848Z,97078.45
2019-05-20T16:00:13.755Z,97079.70
2019-05-20T16:02:48.988Z,97075.48
2019-05-20T16:05:26.189Z,97075.86
2019-05-20T16:08:02.362Z,97070.99
2019-05-20T16:10:35.872Z,97069.02
2019-05-20T16:13:11.271Z,97064.11
2019-05-20T16:15:49.494Z,97060.45
2019-05-20T16:18:31.948Z,97060.58
2019-05-20T16:21:07.151Z,97059.55
2019-05-20T16:23:43.222Z,97056.47
2019-05-20T16:26:18.214Z,97050.91
2019-05-20T16:28:57.640Z,97050.92
2019-05-20T16:31:32.969Z,97053.77
2019-05-20T16:34:11.486Z,97045.55
2019-05-20T16:36:50.209Z,97044.59
2019-05-20T16:39:24.014Z,97048.17
2019-05-20T16:42:03.301Z,97041.94
2019-05-20T16:44:40.438Z,97042.58
2019-05-20T16:47:18.371Z,97044.33
2019-05-20T16:49:57.429Z,97046.58
2019-05-20T16:52:37.531Z,97044.63
2019-05-20T16:55:13.480Z,97046.91
2019-05-20T16:58:05.469Z,97043.98
2019-05-20T17:00:44.823Z,97036.13
2019-05-20T17:03:21.849Z,97036.78
2019-05-20T17:05:59.645Z,97039.41
2019-05-20T17:08:35.030Z,97043.11
2019-05-20T17:11:11.195Z,97040.63
2019-05-20T17:13:49.465Z,97041.14
2019-05-20T17:16:25.107Z,97036.98
2019-05-20T17:21:56.809Z,97028.40
2019-05-20T17:24:32.214Z,97028.08
2019-05-20T17:27:08.830Z,97033.44
2019-05-20T17:29:44.175Z,97028.95
2019-05-20T17:32:19.378Z,97014.38
2019-05-20T17:34:54.511Z,97017.42
2019-05-20T17:37:29.968Z,97015.88
2019-05-20T17:40:05.522Z,97011.01
2019-05-20T17:42:41.961Z,97010.63
2019-05-20T17:45:17.224Z,97011.58
2019-05-20T17:48:07.226Z,97013.63
2019-05-20T17:50:42.801Z,97009.79
2019-05-20T17:53:17.940Z,97014.88
2019-05-20T17:55:52.207Z,97016.19
2019-05-20T17:58:27.725Z,97020.29
2019-05-20T18:01:14.664Z,97017.62
2019-05-20T18:03:42.766Z,97018.66
2019-05-20T18:06:18.241Z,97026.03
2019-05-20T18:08:52.222Z,97030.33
2019-05-20T18:11:36.038Z,97020.37
2019-05-20T18:14:31.760Z,97019.30
2019-05-20T18:16:58.765Z,97014.33
2019-05-20T18:19:39.348Z,97017.78
2019-05-20T18:22:12.749Z,97004.28
2019-05-20T18:24:48.317Z,96993.11
2019-05-20T18:27:26.283Z,96998.74
2019-05-20T18:30:01.935Z,97001.97
2019-05-20T18:32:39.925Z,96995.96
2019-05-20T18:35:14.967Z,96988.23
2019-05-20T18:37:48.743Z,96982.73
2019-05-20T18:40:24.364Z,96986.33
2019-05-20T18:43:02.307Z,96979.34
2019-05-20T18:45:36.853Z,96977.78
2019-05-20T18:48:12.171Z,96967.18
2019-05-20T18:50:50.446Z,96961.17
2019-05-20T18:53:28.303Z,96951.52
2019-05-20T18:56:02.045Z,96943.88
2019-05-20T18:58:41.085Z,96937.78
2019-05-20T19:01:19.785Z,96931.94
2019-05-20T19:03:55.989Z,96928.14
2019-05-20T19:06:31.085Z,96919.12
2019-05-20T19:09:06.851Z,96921.14
2019-05-20T19:11:42.365Z,96917.47
2019-05-20T19:14:17.795Z,96916.05
2019-05-20T19:16:53.255Z,96919.30
2019-05-20T19:19:28.391Z,96917.72
2019-05-20T19:22:03.686Z,96915.67
2019-05-20T19:24:38.757Z,96917.14
2019-05-20T19:27:12.636Z,96915.13
2019-05-20T19:30:05.166Z,96911.34
2019-05-20T19:32:40.327Z,96907.47
2019-05-20T19:35:26.931Z,96908.38
2019-05-20T19:38:02.060Z,96903.48
2019-05-20T19:40:36.981Z,96910.09
2019-05-20T19:43:14.620Z,96906.10
2019-05-20T19:45:52.611Z,96900.34
2019-05-20T19:48:26.493Z,96896.88
2019-05-20T19:51:01.948Z,96900.86
2019-05-20T19:53:44.558Z,96899.17
2019-05-20T19:56:22.404Z,96904.72
2019-05-20T19:58:57.844Z,96907.53
2019-05-20T20:01:33.500Z,96895.85
2019-05-20T20:04:07.313Z,96894.25
2019-05-20T20:06:43.112Z,96887.73
2019-05-20T20:09:21.063Z,96888.86
2019-05-20T20:11:55.503Z,96890.51
2019-05-20T20:14:33.412Z,96881.61
2019-05-20T20:17:09.309Z,96877.69
2019-05-20T20:19:42.901Z,96869.44
2019-05-20T20:22:18.238Z,96872.77
2019-05-20T20:24:53.205Z,96863.07
2019-05-20T20:27:27.036Z,96858.30
2019-05-20T20:30:02.156Z,96865.12
2019-05-20T20:32:38.705Z,96861.59
2019-05-20T20:35:17.100Z,96863.23
2019-05-20T20:37:52.645Z,96866.84
2019-05-20T20:40:27.886Z,96867.08
2019-05-20T20:43:08.444Z,96859.89
2019-05-20T20:45:47.037Z,96861.91
2019-05-20T20:48:24.426Z,96863.67
2019-05-20T20:50:57.876Z,96857.17
2019-05-20T20:53:33.214Z,96845.32
2019-05-20T20:56:24.097Z,96863.84
2019-05-20T20:58:46.956Z,96855.67
2019-05-20T21:01:41.140Z,96859.18
2019-05-20T21:04:16.150Z,96862.16
2019-05-20T21:06:51.103Z,96857.37
2019-05-20T21:09:29.940Z,96855.67
2019-05-20T21:12:07.411Z,96849.73
2019-05-20T21:14:45.393Z,96864.15
2019-05-20T21:17:22.993Z,96858.39
2019-05-20T21:20:00.505Z,96863.48
2019-05-20T21:22:36.619Z,96869.16
2019-05-20T21:25:13.151Z,96859.25
2019-05-20T21:27:51.214Z,96874.74
2019-05-20T21:30:26.506Z,96872.23
2019-05-20T21:33:09.440Z,96873.59
2019-05-20T21:35:55.597Z,96870.27
2019-05-20T21:38:29.229Z,96879.27
2019-05-20T21:41:04.315Z,96885.65
2019-05-20T21:43:42.686Z,96889.92
2019-05-20T21:46:19.899Z,96888.10
2019-05-20T21:48:57.679Z,96877.70
2019-05-20T21:51:36.248Z,96877.70
2019-05-20T21:54:14.163Z,96898.56
2019-05-20T21:56:50.113Z,96898.56
2019-05-20T21:59:25.566Z,96901.14
2019-05-20T22:02:01.503Z,96899.55
2019-05-20T22:04:36.707Z,96905.56
2019-05-20T22:07:13.921Z,96899.75
2019-05-20T22:09:48.840Z,96901.80
2019-05-20T22:12:23.983Z,96907.55
2019-05-20T22:14:58.705Z,96900.83
2019-05-20T22:17:32.368Z,96911.77
2019-05-20T22:20:10.635Z,96909.38
2019-05-20T22:22:44.485Z,96905.95
2019-05-20T22:25:19.514Z,96914.43
2019-05-20T22:27:53.046Z,96915.11
2019-05-20T22:30:26.559Z,96922.75
2019-05-20T22:33:00.269Z,96908.66
2019-05-20T22:35:35.208Z,96921.54
2019-05-20T22:38:11.211Z,96918.65
2019-05-20T22:40:46.607Z,96915.50
2019-05-20T22:43:20.345Z,96924.73
2019-05-20T22:45:54.124Z,96923.52
2019-05-20T22:48:27.794Z,96931.49
2019-05-20T22:51:02.718Z,96926.93
2019-05-20T22:53:37.896Z,96921.87
2019-05-20T22:56:11.578Z,96921.30
2019-05-20T22:58:47.113Z,96923.36
2019-05-20T23:01:21.782Z,96928.23
2019-05-20T23:03:56.855Z,96928.53
2019-05-20T23:06:32.025Z,96931.91
2019-05-20T23:09:06.231Z,96934.03
2019-05-20T23:11:41.085Z,96939.36
2019-05-20T23:14:14.792Z,96939.33
2019-05-20T23:16:48.376Z,96939.47
2019-05-20T23:19:23.274Z,96941.03
2019-05-20T23:21:58.008Z,96946.16
2019-05-20T23:24:31.906Z,96948.22
2019-05-20T23:27:05.529Z,96952.09
2019-05-20T23:29:39.446Z,96962.55
2019-05-20T23:32:14.805Z,96961.63
2019-05-20T23:34:49.987Z,96965.52
2019-05-20T23:37:23.540Z,96969.61
2019-05-20T23:39:58.784Z,96973.98
2019-05-20T23:42:34.657Z,96972.36
2019-05-20T23:45:12.910Z,96961.52
2019-05-20T23:47:46.379Z,96961.75
2019-05-20T23:50:23.206Z,96960.37
2019-05-20T23:52:58.342Z,96960.76
2019-05-20T23:55:33.138Z,96969.20
2019-05-20T23:58:06.809Z,96975.61
